sensor_id;sensor_type;location;lat;lon;timestamp;P1;durP1;ratioP1;P2;durP2;ratioP2
23720;SDS011;42950;52.134;5.578;2023-05-15T00:00:15;20.08;;;17.08;;
23720;SDS011;42950;52.134;5.578;2023-05-15T00:02:42;21.52;;;16.02;;
23720;SDS011;42950;52.134;5.578;2023-05-15T00:05:08;17.10;;;15.30;;
23720;SDS011;42950;52.134;5.578;2023-05-15T00:07:35;19.55;;;16.33;;
23720;SDS011;42950;52.134;5.578;2023-05-15T00:10:01;20.70;;;16.50;;
23720;SDS011;42950;52.134;5.578;2023-05-15T00:12:27;19.13;;;16.35;;
23720;SDS011;42950;52.134;5.578;2023-05-15T00:14:53;19.27;;;16.85;;
23720;SDS011;42950;52.134;5.578;2023-05-15T00:17:18;17.88;;;15.90;;
23720;SDS011;42950;52.134;5.578;2023-05-15T00:19:44;19.88;;;15.70;;
23720;SDS011;42950;52.134;5.578;2023-05-15T00:22:10;20.70;;;17.08;;
23720;SDS011;42950;52.134;5.578;2023-05-15T00:24:36;23.10;;;18.10;;
23720;SDS011;42950;52.134;5.578;2023-05-15T00:27:01;24.60;;;18.88;;
23720;SDS011;42950;52.134;5.578;2023-05-15T00:29:28;21.65;;;18.30;;
23720;SDS011;42950;52.134;5.578;2023-05-15T00:31:54;22.17;;;18.08;;
23720;SDS011;42950;52.134;5.578;2023-05-15T00:34:20;23.38;;;18.50;;
23720;SDS011;42950;52.134;5.578;2023-05-15T00:36:46;22.10;;;17.73;;
23720;SDS011;42950;52.134;5.578;2023-05-15T00:39:12;24.20;;;18.95;;
23720;SDS011;42950;52.134;5.578;2023-05-15T00:41:37;21.90;;;19.08;;
23720;SDS011;42950;52.134;5.578;2023-05-15T00:44:06;21.13;;;18.83;;
23720;SDS011;42950;52.134;5.578;2023-05-15T00:46:33;24.83;;;19.05;;
23720;SDS011;42950;52.134;5.578;2023-05-15T00:49:01;20.88;;;18.25;;
23720;SDS011;42950;52.134;5.578;2023-05-15T00:51:29;20.95;;;18.40;;
23720;SDS011;42950;52.134;5.578;2023-05-15T00:53:57;24.63;;;18.98;;
23720;SDS011;42950;52.134;5.578;2023-05-15T00:56:24;24.45;;;19.17;;
23720;SDS011;42950;52.134;5.578;2023-05-15T00:58:51;23.48;;;17.92;;
23720;SDS011;42950;52.134;5.578;2023-05-15T01:01:19;25.25;;;18.30;;
23720;SDS011;42950;52.134;5.578;2023-05-15T01:03:45;20.35;;;17.33;;
23720;SDS011;42950;52.134;5.578;2023-05-15T01:06:11;22.98;;;18.38;;
23720;SDS011;42950;52.134;5.578;2023-05-15T01:11:10;26.13;;;19.45;;
23720;SDS011;42950;52.134;5.578;2023-05-15T01:13:37;21.60;;;17.90;;
23720;SDS011;42950;52.134;5.578;2023-05-15T01:16:03;22.02;;;18.80;;
23720;SDS011;42950;52.134;5.578;2023-05-15T01:18:30;27.15;;;18.83;;
23720;SDS011;42950;52.134;5.578;2023-05-15T01:32:33;27.90;;;21.10;;
23720;SDS011;42950;52.134;5.578;2023-05-15T01:37:41;24.80;;;21.08;;
23720;SDS011;42950;52.134;5.578;2023-05-15T01:40:10;27.70;;;22.38;;
23720;SDS011;42950;52.134;5.578;2023-05-15T01:42:38;24.25;;;20.58;;
23720;SDS011;42950;52.134;5.578;2023-05-15T01:45:08;25.63;;;20.00;;
23720;SDS011;42950;52.134;5.578;2023-05-15T01:47:53;25.05;;;21.63;;
23720;SDS011;42950;52.134;5.578;2023-05-15T01:50:20;24.73;;;18.63;;
23720;SDS011;42950;52.134;5.578;2023-05-15T01:52:49;25.50;;;20.58;;
23720;SDS011;42950;52.134;5.578;2023-05-15T01:55:19;21.20;;;18.48;;
23720;SDS011;42950;52.134;5.578;2023-05-15T01:57:47;22.98;;;20.17;;
23720;SDS011;42950;52.134;5.578;2023-05-15T02:00:15;26.55;;;20.27;;
23720;SDS011;42950;52.134;5.578;2023-05-15T02:02:48;23.92;;;19.52;;
23720;SDS011;42950;52.134;5.578;2023-05-15T02:05:13;22.60;;;19.58;;
23720;SDS011;42950;52.134;5.578;2023-05-15T02:07:44;28.52;;;21.65;;
23720;SDS011;42950;52.134;5.578;2023-05-15T02:10:12;24.65;;;18.90;;
23720;SDS011;42950;52.134;5.578;2023-05-15T02:12:42;24.42;;;18.98;;
23720;SDS011;42950;52.134;5.578;2023-05-15T02:15:09;23.90;;;19.13;;
23720;SDS011;42950;52.134;5.578;2023-05-15T02:17:35;26.60;;;19.50;;
23720;SDS011;42950;52.134;5.578;2023-05-15T02:20:02;25.88;;;20.52;;
23720;SDS011;42950;52.134;5.578;2023-05-15T02:22:30;26.25;;;19.92;;
23720;SDS011;42950;52.134;5.578;2023-05-15T02:24:56;25.77;;;19.80;;
23720;SDS011;42950;52.134;5.578;2023-05-15T02:30:13;27.60;;;22.50;;
23720;SDS011;42950;52.134;5.578;2023-05-15T02:38:08;36.55;;;23.75;;
23720;SDS011;42950;52.134;5.578;2023-05-15T02:40:37;35.47;;;25.75;;
23720;SDS011;42950;52.134;5.578;2023-05-15T02:43:04;37.55;;;25.50;;
23720;SDS011;42950;52.134;5.578;2023-05-15T02:45:32;43.63;;;27.42;;
23720;SDS011;42950;52.134;5.578;2023-05-15T02:48:00;38.30;;;26.92;;
23720;SDS011;42950;52.134;5.578;2023-05-15T02:50:27;47.50;;;29.02;;
23720;SDS011;42950;52.134;5.578;2023-05-15T02:53:03;46.28;;;29.70;;
23720;SDS011;42950;52.134;5.578;2023-05-15T02:55:31;49.58;;;30.15;;
23720;SDS011;42950;52.134;5.578;2023-05-15T02:58:01;47.75;;;29.75;;
23720;SDS011;42950;52.134;5.578;2023-05-15T03:00:27;53.20;;;31.42;;
23720;SDS011;42950;52.134;5.578;2023-05-15T03:02:53;49.70;;;30.85;;
23720;SDS011;42950;52.134;5.578;2023-05-15T03:05:19;51.15;;;32.03;;
23720;SDS011;42950;52.134;5.578;2023-05-15T03:07:45;48.92;;;30.38;;
23720;SDS011;42950;52.134;5.578;2023-05-15T03:10:10;46.22;;;30.42;;
23720;SDS011;42950;52.134;5.578;2023-05-15T03:12:36;46.67;;;28.90;;
23720;SDS011;42950;52.134;5.578;2023-05-15T03:15:03;46.88;;;29.38;;
23720;SDS011;42950;52.134;5.578;2023-05-15T03:17:30;48.60;;;29.30;;
23720;SDS011;42950;52.134;5.578;2023-05-15T03:19:55;41.58;;;28.88;;
23720;SDS011;42950;52.134;5.578;2023-05-15T03:22:21;49.25;;;29.90;;
23720;SDS011;42950;52.134;5.578;2023-05-15T03:24:47;44.70;;;28.75;;
23720;SDS011;42950;52.134;5.578;2023-05-15T03:27:14;43.75;;;28.42;;
23720;SDS011;42950;52.134;5.578;2023-05-15T03:29:39;51.50;;;30.60;;
23720;SDS011;42950;52.134;5.578;2023-05-15T03:32:07;38.50;;;26.90;;
23720;SDS011;42950;52.134;5.578;2023-05-15T03:34:32;43.97;;;28.00;;
23720;SDS011;42950;52.134;5.578;2023-05-15T03:36:58;43.75;;;29.70;;
23720;SDS011;42950;52.134;5.578;2023-05-15T03:39:26;45.17;;;30.20;;
23720;SDS011;42950;52.134;5.578;2023-05-15T03:41:52;45.88;;;29.38;;
23720;SDS011;42950;52.134;5.578;2023-05-15T03:44:18;47.63;;;29.55;;
23720;SDS011;42950;52.134;5.578;2023-05-15T03:46:45;41.60;;;29.38;;
23720;SDS011;42950;52.134;5.578;2023-05-15T03:49:10;40.67;;;28.85;;
23720;SDS011;42950;52.134;5.578;2023-05-15T03:51:36;37.88;;;28.33;;
23720;SDS011;42950;52.134;5.578;2023-05-15T03:54:01;40.25;;;28.55;;
23720;SDS011;42950;52.134;5.578;2023-05-15T03:56:30;37.35;;;27.60;;
23720;SDS011;42950;52.134;5.578;2023-05-15T03:58:56;37.15;;;26.25;;
23720;SDS011;42950;52.134;5.578;2023-05-15T04:01:22;38.55;;;26.40;;
23720;SDS011;42950;52.134;5.578;2023-05-15T04:03:48;39.20;;;28.02;;
23720;SDS011;42950;52.134;5.578;2023-05-15T04:06:14;36.63;;;27.63;;
23720;SDS011;42950;52.134;5.578;2023-05-15T04:08:39;39.63;;;29.05;;
23720;SDS011;42950;52.134;5.578;2023-05-15T04:11:05;42.15;;;27.83;;
23720;SDS011;42950;52.134;5.578;2023-05-15T04:13:31;37.55;;;28.08;;
23720;SDS011;42950;52.134;5.578;2023-05-15T04:15:58;41.65;;;28.08;;
23720;SDS011;42950;52.134;5.578;2023-05-15T04:18:24;39.33;;;28.60;;
23720;SDS011;42950;52.134;5.578;2023-05-15T04:20:51;43.08;;;29.08;;
23720;SDS011;42950;52.134;5.578;2023-05-15T04:23:16;43.60;;;29.65;;
23720;SDS011;42950;52.134;5.578;2023-05-15T04:25:42;45.97;;;29.85;;
23720;SDS011;42950;52.134;5.578;2023-05-15T04:28:10;39.35;;;29.23;;
23720;SDS011;42950;52.134;5.578;2023-05-15T04:30:37;43.38;;;29.58;;
23720;SDS011;42950;52.134;5.578;2023-05-15T04:33:02;41.30;;;28.88;;
23720;SDS011;42950;52.134;5.578;2023-05-15T04:35:28;40.58;;;29.38;;
23720;SDS011;42950;52.134;5.578;2023-05-15T04:37:54;43.33;;;29.40;;
23720;SDS011;42950;52.134;5.578;2023-05-15T04:40:20;36.83;;;28.02;;
23720;SDS011;42950;52.134;5.578;2023-05-15T04:42:45;40.65;;;28.98;;
23720;SDS011;42950;52.134;5.578;2023-05-15T04:45:11;39.22;;;28.73;;
23720;SDS011;42950;52.134;5.578;2023-05-15T04:47:37;40.50;;;28.65;;
23720;SDS011;42950;52.134;5.578;2023-05-15T04:50:03;37.03;;;26.27;;
23720;SDS011;42950;52.134;5.578;2023-05-15T04:52:28;38.15;;;27.42;;
23720;SDS011;42950;52.134;5.578;2023-05-15T04:54:54;36.78;;;28.38;;
23720;SDS011;42950;52.134;5.578;2023-05-15T04:57:20;38.40;;;27.58;;
23720;SDS011;42950;52.134;5.578;2023-05-15T04:59:46;36.60;;;27.42;;
23720;SDS011;42950;52.134;5.578;2023-05-15T05:02:11;36.63;;;29.17;;
23720;SDS011;42950;52.134;5.578;2023-05-15T05:04:41;36.50;;;26.92;;
23720;SDS011;42950;52.134;5.578;2023-05-15T05:07:07;36.47;;;28.73;;
23720;SDS011;42950;52.134;5.578;2023-05-15T05:09:34;35.30;;;27.88;;
23720;SDS011;42950;52.134;5.578;2023-05-15T05:12:00;36.63;;;28.40;;
23720;SDS011;42950;52.134;5.578;2023-05-15T05:14:27;34.67;;;27.45;;
23720;SDS011;42950;52.134;5.578;2023-05-15T05:16:52;33.90;;;26.42;;
23720;SDS011;42950;52.134;5.578;2023-05-15T05:19:18;30.50;;;25.33;;
23720;SDS011;42950;52.134;5.578;2023-05-15T05:21:44;36.88;;;26.80;;
23720;SDS011;42950;52.134;5.578;2023-05-15T05:24:10;34.70;;;26.67;;
23720;SDS011;42950;52.134;5.578;2023-05-15T05:26:36;34.30;;;26.50;;
23720;SDS011;42950;52.134;5.578;2023-05-15T05:29:01;36.00;;;25.80;;
23720;SDS011;42950;52.134;5.578;2023-05-15T05:31:27;32.50;;;25.60;;
23720;SDS011;42950;52.134;5.578;2023-05-15T05:33:53;31.35;;;24.83;;
23720;SDS011;42950;52.134;5.578;2023-05-15T05:36:19;31.55;;;24.92;;
23720;SDS011;42950;52.134;5.578;2023-05-15T05:38:44;36.53;;;25.75;;
23720;SDS011;42950;52.134;5.578;2023-05-15T05:41:10;29.23;;;24.02;;
23720;SDS011;42950;52.134;5.578;2023-05-15T05:43:36;32.55;;;24.52;;
23720;SDS011;42950;52.134;5.578;2023-05-15T05:46:01;29.92;;;24.13;;
23720;SDS011;42950;52.134;5.578;2023-05-15T05:48:27;31.13;;;24.48;;
23720;SDS011;42950;52.134;5.578;2023-05-15T05:50:53;30.88;;;23.67;;
23720;SDS011;42950;52.134;5.578;2023-05-15T05:53:19;29.02;;;23.10;;
23720;SDS011;42950;52.134;5.578;2023-05-15T05:55:44;26.27;;;21.92;;
23720;SDS011;42950;52.134;5.578;2023-05-15T05:58:10;25.92;;;21.17;;
23720;SDS011;42950;52.134;5.578;2023-05-15T06:00:36;24.58;;;19.73;;
23720;SDS011;42950;52.134;5.578;2023-05-15T06:03:02;21.42;;;19.13;;
23720;SDS011;42950;52.134;5.578;2023-05-15T06:05:27;20.92;;;18.65;;
23720;SDS011;42950;52.134;5.578;2023-05-15T06:07:53;25.75;;;20.15;;
23720;SDS011;42950;52.134;5.578;2023-05-15T06:10:19;24.98;;;20.05;;
23720;SDS011;42950;52.134;5.578;2023-05-15T06:12:46;23.02;;;19.10;;
23720;SDS011;42950;52.134;5.578;2023-05-15T06:15:13;22.83;;;18.38;;
23720;SDS011;42950;52.134;5.578;2023-05-15T06:17:39;21.88;;;18.10;;
23720;SDS011;42950;52.134;5.578;2023-05-15T06:20:05;25.27;;;18.55;;
23720;SDS011;42950;52.134;5.578;2023-05-15T06:22:37;22.02;;;17.85;;
23720;SDS011;42950;52.134;5.578;2023-05-15T06:25:03;23.80;;;17.58;;
23720;SDS011;42950;52.134;5.578;2023-05-15T06:27:30;21.38;;;17.52;;
23720;SDS011;42950;52.134;5.578;2023-05-15T06:29:59;20.42;;;17.40;;
23720;SDS011;42950;52.134;5.578;2023-05-15T06:32:24;22.98;;;17.75;;
23720;SDS011;42950;52.134;5.578;2023-05-15T06:34:52;20.90;;;17.02;;
23720;SDS011;42950;52.134;5.578;2023-05-15T06:37:20;20.08;;;16.90;;
23720;SDS011;42950;52.134;5.578;2023-05-15T06:39:46;20.48;;;17.05;;
23720;SDS011;42950;52.134;5.578;2023-05-15T06:42:12;22.40;;;17.40;;
23720;SDS011;42950;52.134;5.578;2023-05-15T06:44:39;22.75;;;17.67;;
23720;SDS011;42950;52.134;5.578;2023-05-15T06:47:05;18.80;;;16.63;;
23720;SDS011;42950;52.134;5.578;2023-05-15T06:49:30;18.02;;;16.23;;
23720;SDS011;42950;52.134;5.578;2023-05-15T06:51:56;18.30;;;16.33;;
23720;SDS011;42950;52.134;5.578;2023-05-15T06:54:22;16.95;;;15.05;;
23720;SDS011;42950;52.134;5.578;2023-05-15T06:56:47;21.48;;;17.20;;
23720;SDS011;42950;52.134;5.578;2023-05-15T06:59:14;19.27;;;17.23;;
23720;SDS011;42950;52.134;5.578;2023-05-15T07:01:39;18.40;;;16.15;;
23720;SDS011;42950;52.134;5.578;2023-05-15T07:04:12;17.55;;;15.75;;
23720;SDS011;42950;52.134;5.578;2023-05-15T07:06:38;20.77;;;17.45;;
23720;SDS011;42950;52.134;5.578;2023-05-15T07:09:04;17.80;;;15.88;;
23720;SDS011;42950;52.134;5.578;2023-05-15T07:11:30;19.25;;;16.15;;
23720;SDS011;42950;52.134;5.578;2023-05-15T07:13:57;24.70;;;19.20;;
23720;SDS011;42950;52.134;5.578;2023-05-15T07:16:23;23.77;;;18.25;;
23720;SDS011;42950;52.134;5.578;2023-05-15T07:18:49;21.92;;;19.25;;
23720;SDS011;42950;52.134;5.578;2023-05-15T07:21:14;23.90;;;21.38;;
23720;SDS011;42950;52.134;5.578;2023-05-15T07:23:40;24.13;;;20.95;;
23720;SDS011;42950;52.134;5.578;2023-05-15T07:26:06;23.92;;;21.10;;
23720;SDS011;42950;52.134;5.578;2023-05-15T07:28:31;23.40;;;20.95;;
23720;SDS011;42950;52.134;5.578;2023-05-15T07:30:58;21.45;;;19.15;;
23720;SDS011;42950;52.134;5.578;2023-05-15T07:33:24;24.48;;;20.30;;
23720;SDS011;42950;52.134;5.578;2023-05-15T07:35:49;23.05;;;20.50;;
23720;SDS011;42950;52.134;5.578;2023-05-15T07:38:16;21.60;;;19.13;;
23720;SDS011;42950;52.134;5.578;2023-05-15T07:40:42;21.90;;;19.58;;
23720;SDS011;42950;52.134;5.578;2023-05-15T07:43:07;20.65;;;18.60;;
23720;SDS011;42950;52.134;5.578;2023-05-15T07:45:34;22.10;;;19.90;;
23720;SDS011;42950;52.134;5.578;2023-05-15T07:48:11;22.38;;;19.52;;
23720;SDS011;42950;52.134;5.578;2023-05-15T07:50:41;21.45;;;19.27;;
23720;SDS011;42950;52.134;5.578;2023-05-15T07:53:10;23.85;;;19.77;;
23720;SDS011;42950;52.134;5.578;2023-05-15T07:55:37;24.40;;;20.30;;
23720;SDS011;42950;52.134;5.578;2023-05-15T07:58:02;24.55;;;21.23;;
23720;SDS011;42950;52.134;5.578;2023-05-15T08:00:28;22.33;;;20.02;;
23720;SDS011;42950;52.134;5.578;2023-05-15T08:02:54;22.50;;;20.10;;
23720;SDS011;42950;52.134;5.578;2023-05-15T08:05:20;21.08;;;18.95;;
23720;SDS011;42950;52.134;5.578;2023-05-15T08:07:46;23.75;;;19.65;;
23720;SDS011;42950;52.134;5.578;2023-05-15T08:10:11;22.20;;;19.67;;
23720;SDS011;42950;52.134;5.578;2023-05-15T08:12:38;22.52;;;20.13;;
23720;SDS011;42950;52.134;5.578;2023-05-15T08:15:10;23.70;;;20.35;;
23720;SDS011;42950;52.134;5.578;2023-05-15T08:17:36;21.48;;;18.33;;
23720;SDS011;42950;52.134;5.578;2023-05-15T08:20:02;20.83;;;18.33;;
23720;SDS011;42950;52.134;5.578;2023-05-15T08:22:29;20.50;;;17.52;;
23720;SDS011;42950;52.134;5.578;2023-05-15T08:24:55;18.02;;;15.90;;
23720;SDS011;42950;52.134;5.578;2023-05-15T08:29:49;16.83;;;15.02;;
23720;SDS011;42950;52.134;5.578;2023-05-15T08:32:16;18.27;;;16.40;;
23720;SDS011;42950;52.134;5.578;2023-05-15T08:34:42;17.92;;;15.73;;
23720;SDS011;42950;52.134;5.578;2023-05-15T08:37:08;17.25;;;15.30;;
23720;SDS011;42950;52.134;5.578;2023-05-15T08:39:34;16.17;;;14.48;;
23720;SDS011;42950;52.134;5.578;2023-05-15T08:42:18;16.98;;;15.05;;
23720;SDS011;42950;52.134;5.578;2023-05-15T08:44:49;15.50;;;13.70;;
23720;SDS011;42950;52.134;5.578;2023-05-15T08:47:17;16.15;;;12.15;;
23720;SDS011;42950;52.134;5.578;2023-05-15T08:49:50;14.27;;;12.77;;
23720;SDS011;42950;52.134;5.578;2023-05-15T08:52:45;14.45;;;12.55;;
23720;SDS011;42950;52.134;5.578;2023-05-15T08:55:15;16.15;;;12.18;;
23720;SDS011;42950;52.134;5.578;2023-05-15T08:57:42;15.60;;;12.15;;
23720;SDS011;42950;52.134;5.578;2023-05-15T09:00:09;13.52;;;12.15;;
23720;SDS011;42950;52.134;5.578;2023-05-15T09:02:39;17.15;;;12.95;;
23720;SDS011;42950;52.134;5.578;2023-05-15T09:05:06;15.57;;;13.18;;
23720;SDS011;42950;52.134;5.578;2023-05-15T09:07:32;16.25;;;12.70;;
23720;SDS011;42950;52.134;5.578;2023-05-15T09:09:58;16.25;;;14.27;;
23720;SDS011;42950;52.134;5.578;2023-05-15T09:12:26;15.70;;;14.15;;
23720;SDS011;42950;52.134;5.578;2023-05-15T09:17:37;15.43;;;13.73;;
23720;SDS011;42950;52.134;5.578;2023-05-15T09:20:05;17.65;;;13.68;;
23720;SDS011;42950;52.134;5.578;2023-05-15T09:22:32;16.40;;;14.70;;
23720;SDS011;42950;52.134;5.578;2023-05-15T09:24:59;15.35;;;13.82;;
23720;SDS011;42950;52.134;5.578;2023-05-15T09:27:27;15.93;;;13.85;;
23720;SDS011;42950;52.134;5.578;2023-05-15T09:29:53;23.50;;;14.65;;
23720;SDS011;42950;52.134;5.578;2023-05-15T09:32:20;17.60;;;13.30;;
23720;SDS011;42950;52.134;5.578;2023-05-15T09:34:47;17.10;;;14.20;;
23720;SDS011;42950;52.134;5.578;2023-05-15T09:37:29;14.88;;;13.27;;
23720;SDS011;42950;52.134;5.578;2023-05-15T09:40:14;15.82;;;13.80;;
23720;SDS011;42950;52.134;5.578;2023-05-15T09:42:44;15.60;;;13.35;;
23720;SDS011;42950;52.134;5.578;2023-05-15T09:45:16;15.50;;;13.88;;
23720;SDS011;42950;52.134;5.578;2023-05-15T09:47:42;15.82;;;13.68;;
23720;SDS011;42950;52.134;5.578;2023-05-15T09:50:08;14.25;;;12.77;;
23720;SDS011;42950;52.134;5.578;2023-05-15T09:52:34;15.48;;;13.60;;
23720;SDS011;42950;52.134;5.578;2023-05-15T09:55:00;17.90;;;15.77;;
23720;SDS011;42950;52.134;5.578;2023-05-15T09:57:26;20.77;;;16.38;;
23720;SDS011;42950;52.134;5.578;2023-05-15T09:59:52;20.05;;;17.05;;
23720;SDS011;42950;52.134;5.578;2023-05-15T10:02:24;19.65;;;16.65;;
23720;SDS011;42950;52.134;5.578;2023-05-15T10:04:56;19.00;;;17.00;;
23720;SDS011;42950;52.134;5.578;2023-05-15T10:07:29;18.20;;;16.30;;
23720;SDS011;42950;52.134;5.578;2023-05-15T10:09:56;18.73;;;16.75;;
23720;SDS011;42950;52.134;5.578;2023-05-15T10:12:23;18.60;;;16.70;;
23720;SDS011;42950;52.134;5.578;2023-05-15T10:14:49;20.48;;;16.58;;
23720;SDS011;42950;52.134;5.578;2023-05-15T10:17:19;19.42;;;16.83;;
23720;SDS011;42950;52.134;5.578;2023-05-15T10:19:46;21.67;;;17.40;;
23720;SDS011;42950;52.134;5.578;2023-05-15T10:22:14;19.85;;;16.85;;
23720;SDS011;42950;52.134;5.578;2023-05-15T10:24:46;21.23;;;18.73;;
23720;SDS011;42950;52.134;5.578;2023-05-15T10:27:16;20.67;;;18.48;;
23720;SDS011;42950;52.134;5.578;2023-05-15T10:29:44;21.83;;;18.88;;
23720;SDS011;42950;52.134;5.578;2023-05-15T10:32:11;23.17;;;20.67;;
23720;SDS011;42950;52.134;5.578;2023-05-15T10:34:37;24.30;;;21.70;;
23720;SDS011;42950;52.134;5.578;2023-05-15T10:37:03;25.17;;;22.23;;
23720;SDS011;42950;52.134;5.578;2023-05-15T10:39:30;27.58;;;22.30;;
23720;SDS011;42950;52.134;5.578;2023-05-15T10:42:00;24.98;;;22.17;;
23720;SDS011;42950;52.134;5.578;2023-05-15T10:44:26;31.40;;;24.10;;
23720;SDS011;42950;52.134;5.578;2023-05-15T10:46:52;29.17;;;25.55;;
23720;SDS011;42950;52.134;5.578;2023-05-15T10:49:18;29.33;;;25.05;;
23720;SDS011;42950;52.134;5.578;2023-05-15T10:51:45;30.02;;;25.58;;
23720;SDS011;42950;52.134;5.578;2023-05-15T10:54:10;30.65;;;26.73;;
23720;SDS011;42950;52.134;5.578;2023-05-15T10:56:37;31.70;;;25.85;;
23720;SDS011;42950;52.134;5.578;2023-05-15T10:59:04;34.30;;;28.58;;
23720;SDS011;42950;52.134;5.578;2023-05-15T11:01:33;33.90;;;27.40;;
23720;SDS011;42950;52.134;5.578;2023-05-15T11:06:45;32.95;;;29.13;;
23720;SDS011;42950;52.134;5.578;2023-05-15T11:09:54;37.17;;;29.80;;
23720;SDS011;42950;52.134;5.578;2023-05-15T11:12:11;37.35;;;29.17;;
23720;SDS011;42950;52.134;5.578;2023-05-15T11:14:42;36.20;;;28.85;;
23720;SDS011;42950;52.134;5.578;2023-05-15T11:17:28;36.45;;;29.15;;
23720;SDS011;42950;52.134;5.578;2023-05-15T11:19:57;40.10;;;29.60;;
23720;SDS011;42950;52.134;5.578;2023-05-15T11:22:28;40.33;;;31.77;;
23720;SDS011;42950;52.134;5.578;2023-05-15T11:25:07;37.47;;;30.75;;
23720;SDS011;42950;52.134;5.578;2023-05-15T11:27:38;38.17;;;30.42;;
23720;SDS011;42950;52.134;5.578;2023-05-15T11:35:21;41.08;;;32.17;;
23720;SDS011;42950;52.134;5.578;2023-05-15T11:37:51;42.22;;;33.72;;
23720;SDS011;42950;52.134;5.578;2023-05-15T11:40:19;47.92;;;34.30;;
23720;SDS011;42950;52.134;5.578;2023-05-15T11:45:41;46.38;;;33.95;;
23720;SDS011;42950;52.134;5.578;2023-05-15T11:48:11;43.22;;;33.03;;
23720;SDS011;42950;52.134;5.578;2023-05-15T11:50:39;42.42;;;32.90;;
23720;SDS011;42950;52.134;5.578;2023-05-15T11:53:06;46.65;;;33.03;;
23720;SDS011;42950;52.134;5.578;2023-05-15T11:55:33;42.67;;;33.00;;
23720;SDS011;42950;52.134;5.578;2023-05-15T11:58:00;50.40;;;35.33;;
23720;SDS011;42950;52.134;5.578;2023-05-15T12:00:26;46.33;;;34.92;;
23720;SDS011;42950;52.134;5.578;2023-05-15T12:02:52;43.20;;;32.90;;
23720;SDS011;42950;52.134;5.578;2023-05-15T12:05:18;45.47;;;33.72;;
23720;SDS011;42950;52.134;5.578;2023-05-15T12:07:45;48.25;;;36.38;;
23720;SDS011;42950;52.134;5.578;2023-05-15T12:10:11;48.15;;;36.03;;
23720;SDS011;42950;52.134;5.578;2023-05-15T12:12:43;45.80;;;35.00;;
23720;SDS011;42950;52.134;5.578;2023-05-15T12:15:14;47.28;;;35.05;;
23720;SDS011;42950;52.134;5.578;2023-05-15T12:17:41;38.10;;;30.48;;
23720;SDS011;42950;52.134;5.578;2023-05-15T12:20:17;38.45;;;29.00;;
23720;SDS011;42950;52.134;5.578;2023-05-15T12:22:43;36.97;;;27.98;;
23720;SDS011;42950;52.134;5.578;2023-05-15T12:25:11;37.63;;;28.35;;
23720;SDS011;42950;52.134;5.578;2023-05-15T12:27:40;37.05;;;28.10;;
23720;SDS011;42950;52.134;5.578;2023-05-15T12:30:06;33.28;;;27.58;;
23720;SDS011;42950;52.134;5.578;2023-05-15T12:32:33;36.97;;;28.35;;
23720;SDS011;42950;52.134;5.578;2023-05-15T12:35:00;40.97;;;30.15;;
23720;SDS011;42950;52.134;5.578;2023-05-15T12:37:29;38.58;;;30.17;;
23720;SDS011;42950;52.134;5.578;2023-05-15T12:39:59;38.15;;;28.30;;
23720;SDS011;42950;52.134;5.578;2023-05-15T12:42:43;35.97;;;28.17;;
23720;SDS011;42950;52.134;5.578;2023-05-15T12:45:16;35.75;;;28.67;;
23720;SDS011;42950;52.134;5.578;2023-05-15T12:47:44;35.53;;;26.52;;
23720;SDS011;42950;52.134;5.578;2023-05-15T12:50:19;36.00;;;27.05;;
23720;SDS011;42950;52.134;5.578;2023-05-15T12:52:49;34.92;;;27.50;;
23720;SDS011;42950;52.134;5.578;2023-05-15T12:55:25;36.67;;;27.60;;
23720;SDS011;42950;52.134;5.578;2023-05-15T12:57:56;33.90;;;25.88;;
23720;SDS011;42950;52.134;5.578;2023-05-15T13:00:23;31.52;;;23.88;;
23720;SDS011;42950;52.134;5.578;2023-05-15T13:02:53;30.60;;;22.75;;
23720;SDS011;42950;52.134;5.578;2023-05-15T13:05:23;26.48;;;21.25;;
23720;SDS011;42950;52.134;5.578;2023-05-15T13:07:50;28.92;;;22.42;;
23720;SDS011;42950;52.134;5.578;2023-05-15T13:10:18;27.00;;;21.17;;
23720;SDS011;42950;52.134;5.578;2023-05-15T13:12:52;22.88;;;19.95;;
23720;SDS011;42950;52.134;5.578;2023-05-15T13:15:32;24.10;;;19.90;;
23720;SDS011;42950;52.134;5.578;2023-05-15T13:18:01;25.88;;;20.98;;
23720;SDS011;42950;52.134;5.578;2023-05-15T13:20:29;25.02;;;20.52;;
23720;SDS011;42950;52.134;5.578;2023-05-15T13:22:58;24.60;;;21.45;;
23720;SDS011;42950;52.134;5.578;2023-05-15T13:25:24;26.20;;;21.95;;
23720;SDS011;42950;52.134;5.578;2023-05-15T13:27:50;23.13;;;20.60;;
23720;SDS011;42950;52.134;5.578;2023-05-15T13:30:16;32.65;;;24.30;;
23720;SDS011;42950;52.134;5.578;2023-05-15T13:32:42;28.48;;;23.42;;
23720;SDS011;42950;52.134;5.578;2023-05-15T13:35:09;28.25;;;24.70;;
23720;SDS011;42950;52.134;5.578;2023-05-15T13:37:36;28.50;;;22.48;;
23720;SDS011;42950;52.134;5.578;2023-05-15T13:40:02;25.48;;;21.75;;
23720;SDS011;42950;52.134;5.578;2023-05-15T13:42:34;27.42;;;20.42;;
23720;SDS011;42950;52.134;5.578;2023-05-15T13:45:01;23.80;;;20.83;;
23720;SDS011;42950;52.134;5.578;2023-05-15T13:47:29;25.17;;;22.27;;
23720;SDS011;42950;52.134;5.578;2023-05-15T13:49:55;23.58;;;19.40;;
23720;SDS011;42950;52.134;5.578;2023-05-15T13:52:20;20.33;;;18.30;;
23720;SDS011;42950;52.134;5.578;2023-05-15T13:54:46;18.60;;;16.45;;
23720;SDS011;42950;52.134;5.578;2023-05-15T13:57:12;17.40;;;14.75;;
23720;SDS011;42950;52.134;5.578;2023-05-15T13:59:37;14.57;;;12.07;;
23720;SDS011;42950;52.134;5.578;2023-05-15T14:02:03;10.98;;;9.80;;
23720;SDS011;42950;52.134;5.578;2023-05-15T14:04:30;11.93;;;8.60;;
23720;SDS011;42950;52.134;5.578;2023-05-15T14:06:56;11.63;;;7.93;;
23720;SDS011;42950;52.134;5.578;2023-05-15T14:09:26;9.70;;;7.60;;
23720;SDS011;42950;52.134;5.578;2023-05-15T14:11:52;11.90;;;8.30;;
23720;SDS011;42950;52.134;5.578;2023-05-15T14:14:18;12.18;;;9.10;;
23720;SDS011;42950;52.134;5.578;2023-05-15T14:16:44;12.07;;;9.55;;
23720;SDS011;42950;52.134;5.578;2023-05-15T14:19:10;13.43;;;9.88;;
23720;SDS011;42950;52.134;5.578;2023-05-15T14:21:35;13.77;;;9.15;;
23720;SDS011;42950;52.134;5.578;2023-05-15T14:24:03;14.93;;;10.57;;
23720;SDS011;42950;52.134;5.578;2023-05-15T14:26:31;15.73;;;10.45;;
23720;SDS011;42950;52.134;5.578;2023-05-15T14:29:00;15.15;;;11.18;;
23720;SDS011;42950;52.134;5.578;2023-05-15T14:31:26;14.10;;;10.60;;
23720;SDS011;42950;52.134;5.578;2023-05-15T14:33:52;14.02;;;10.73;;
23720;SDS011;42950;52.134;5.578;2023-05-15T14:36:17;15.70;;;10.15;;
23720;SDS011;42950;52.134;5.578;2023-05-15T14:38:43;12.73;;;9.88;;
23720;SDS011;42950;52.134;5.578;2023-05-15T14:41:11;16.98;;;11.48;;
23720;SDS011;42950;52.134;5.578;2023-05-15T14:43:37;15.68;;;10.52;;
23720;SDS011;42950;52.134;5.578;2023-05-15T14:46:03;19.25;;;10.27;;
23720;SDS011;42950;52.134;5.578;2023-05-15T14:48:29;12.60;;;9.65;;
23720;SDS011;42950;52.134;5.578;2023-05-15T14:50:59;13.70;;;9.60;;
23720;SDS011;42950;52.134;5.578;2023-05-15T14:53:25;12.15;;;9.48;;
23720;SDS011;42950;52.134;5.578;2023-05-15T14:55:51;10.52;;;7.57;;
23720;SDS011;42950;52.134;5.578;2023-05-15T14:58:18;9.52;;;6.65;;
23720;SDS011;42950;52.134;5.578;2023-05-15T15:00:44;8.50;;;7.10;;
23720;SDS011;42950;52.134;5.578;2023-05-15T15:03:12;10.65;;;6.05;;
23720;SDS011;42950;52.134;5.578;2023-05-15T15:05:38;11.30;;;5.65;;